Home PIREPS Pireps

Flight SAB2811

  • Submitted By: Vincent Fourni
  • Departure Airport: Bruxelles National (EBBR)
  • Arrival Airport: Praha - Ruzyne (LKPR)
  • Aircraft: B737-500 (OO-SAB)
  • Flight Time: 01.11
  • Date Submitted: 23/09/2016
  • Status: Accepted
Flight Details
Gross Revenue:
(123 load / € 0.00 per unit
€ 0.00
Fuel Cost:
(3783 fuel used @ 5.1 / unit)
€ 19,293.30

Additional Log Information:

View Log

Aircraft Used in flight is PMDG 737-800NGX Brussels Airlines Winglets
21:05 Brakes are On
21:05 Brakes are Released
21:05 In Air Refuel Suspected
21:10 You Took off @ 172 Knots and Flaps at Position 3
Departure Weather
EBBR 231850Z 13002KT CAVOK 15/11 Q1025 NOSIGrn
21:10 Landing Gear Up @ 173 Knots and 410 Feet
21:14 Above FL100 you need to switch of the landing lights
22:01 Overspeed
22:01 Recovered from Overspeed
22:07 Below 10000 feet you are not allowed to go over 250 knots
22:12 Landing Gear Down @ 172 Knots and 2930 Feet
22:16 You Landed @ 130 Knots and with -1000 Vertical Speed
Arrival Weather
LKPR 231930Z 24005KT CAVOK 13/09 Q1026 NOSIGrn
22:16 Your Landing was very hard
22:16 Paused
22:20 Unpaused
22:20 Paused
22:20 Unpaused
22:20 Brussels Bel-Track1.0.1.2

Route Map

Corporate About Us Our Team Vacancies Information Fleet Route Network Rules and Regulations Operations Flight Schedules Event Center Tours Partners IVAO Vatsim Acars dev FSCB

fb Users Online South Africa Marc Toussaint,
1 Pilot(s) and 163 Guest(s) Online
CMS by phpVMS - Design by Crazycreatives.com - Copyright © 2020 - Brussels Airlines Virtual